createdAt,value
2023-03-06T00:02:20.755Z,99.90
2023-03-06T00:04:47.401Z,99.90
2023-03-06T00:07:14.275Z,99.90
2023-03-06T00:09:40.898Z,99.90
2023-03-06T00:12:07.828Z,99.90
2023-03-06T00:14:34.427Z,99.90
2023-03-06T00:17:01.094Z,99.90
2023-03-06T00:19:27.711Z,99.90
2023-03-06T00:21:54.863Z,99.90
2023-03-06T00:24:21.562Z,99.90
2023-03-06T00:26:48.291Z,99.90
2023-03-06T00:29:15.269Z,99.90
2023-03-06T00:31:47.661Z,99.90
2023-03-06T00:34:14.799Z,99.90
2023-03-06T00:36:41.892Z,99.90
2023-03-06T00:39:09.478Z,99.90
2023-03-06T00:41:36.273Z,99.90
2023-03-06T00:44:02.923Z,99.90
2023-03-06T00:46:29.558Z,99.90
2023-03-06T00:48:56.205Z,99.90
2023-03-06T00:51:22.806Z,99.90
2023-03-06T00:53:49.484Z,99.90
2023-03-06T00:56:17.418Z,99.90
2023-03-06T00:58:45.792Z,99.90
2023-03-06T01:01:12.549Z,99.90
2023-03-06T01:03:39.152Z,99.90
2023-03-06T01:06:06.003Z,99.90
2023-03-06T01:08:35.166Z,99.90
2023-03-06T01:11:01.823Z,99.90
2023-03-06T01:13:28.480Z,99.90
2023-03-06T01:15:55.144Z,99.90
2023-03-06T01:18:21.821Z,99.90
2023-03-06T01:20:48.586Z,99.90
2023-03-06T01:23:15.299Z,99.90
2023-03-06T01:25:41.900Z,99.90
2023-03-06T01:28:08.496Z,99.90
2023-03-06T01:30:35.962Z,99.90
2023-03-06T01:33:02.563Z,99.90
2023-03-06T01:35:29.245Z,99.90
2023-03-06T01:37:55.956Z,99.90
2023-03-06T01:40:22.709Z,99.90
2023-03-06T01:42:50.343Z,99.90
2023-03-06T01:45:16.965Z,99.90
2023-03-06T01:47:44.724Z,99.90
2023-03-06T01:50:12.359Z,99.90
2023-03-06T01:52:43.524Z,99.90
2023-03-06T01:55:13.816Z,99.90
2023-03-06T01:57:43.883Z,99.90
2023-03-06T02:00:18.728Z,99.90
2023-03-06T02:02:47.610Z,99.90
2023-03-06T02:05:14.384Z,99.90
2023-03-06T02:07:42.309Z,99.90
2023-03-06T02:10:09.267Z,99.90
2023-03-06T02:12:37.454Z,99.90
2023-03-06T02:15:04.718Z,99.90
2023-03-06T02:17:33.980Z,99.90
2023-03-06T02:20:03.724Z,99.90
2023-03-06T02:22:34.857Z,99.90
2023-03-06T02:25:07.801Z,99.90
2023-03-06T02:27:34.428Z,99.90
2023-03-06T02:30:04.716Z,99.90
2023-03-06T02:32:31.368Z,99.90
2023-03-06T02:34:58.253Z,99.90
2023-03-06T02:37:25.819Z,99.90
2023-03-06T02:39:57.983Z,99.90
2023-03-06T02:42:26.020Z,99.90
2023-03-06T02:44:54.576Z,99.90
2023-03-06T02:47:21.258Z,99.90
2023-03-06T02:49:47.905Z,99.90
2023-03-06T02:52:14.540Z,99.90
2023-03-06T02:54:42.449Z,99.90
2023-03-06T02:57:09.504Z,99.90
2023-03-06T02:59:36.176Z,99.90
2023-03-06T03:02:05.166Z,99.90
2023-03-06T03:04:34.094Z,99.90
2023-03-06T03:07:01.949Z,99.90
2023-03-06T03:09:28.792Z,99.90
2023-03-06T03:11:55.488Z,99.90
2023-03-06T03:14:24.429Z,99.90
2023-03-06T03:16:51.122Z,99.90
2023-03-06T03:19:17.892Z,99.90
2023-03-06T03:21:45.073Z,99.90
2023-03-06T03:24:11.817Z,99.90
2023-03-06T03:26:38.418Z,99.90
2023-03-06T03:29:11.197Z,99.90
2023-03-06T03:31:37.903Z,99.90
2023-03-06T03:34:05.214Z,99.90
2023-03-06T03:36:35.517Z,99.90
2023-03-06T03:39:04.056Z,99.90
2023-03-06T03:41:30.862Z,99.90
2023-03-06T03:43:57.593Z,99.90
2023-03-06T03:46:24.936Z,99.90
2023-03-06T03:48:53.356Z,99.90
2023-03-06T03:51:21.862Z,99.90
2023-03-06T03:53:52.862Z,99.90
2023-03-06T03:56:22.890Z,99.90
2023-03-06T03:58:56.733Z,99.90
2023-03-06T04:01:25.479Z,99.90
2023-03-06T04:03:52.204Z,99.90
2023-03-06T04:06:19.108Z,99.90
2023-03-06T04:08:47.230Z,99.90
2023-03-06T04:11:13.932Z,99.90
2023-03-06T04:13:40.669Z,99.90
2023-03-06T04:16:08.001Z,99.90
2023-03-06T04:18:37.073Z,99.90
2023-03-06T04:21:05.655Z,99.90
2023-03-06T04:23:32.785Z,99.90
2023-03-06T04:25:59.865Z,99.90
2023-03-06T04:28:27.357Z,99.90
2023-03-06T04:30:54.259Z,99.90
2023-03-06T04:33:21.368Z,99.90
2023-03-06T04:35:48.570Z,99.90
2023-03-06T04:38:22.293Z,99.90
2023-03-06T04:40:49.662Z,99.90
2023-03-06T04:43:16.732Z,99.90
2023-03-06T04:45:43.481Z,99.90
2023-03-06T04:48:12.656Z,99.90
2023-03-06T04:50:39.335Z,99.90
2023-03-06T04:53:06.098Z,99.90
2023-03-06T04:55:32.838Z,99.90
2023-03-06T04:57:59.595Z,99.90
2023-03-06T05:00:31.293Z,99.90
2023-03-06T05:02:59.353Z,99.90
2023-03-06T05:05:26.352Z,99.90
2023-03-06T05:07:53.606Z,99.90
2023-03-06T05:10:20.486Z,99.90
2023-03-06T05:12:47.145Z,99.90
2023-03-06T05:15:14.328Z,99.90
2023-03-06T05:17:41.385Z,99.90
2023-03-06T05:20:09.630Z,99.90
2023-03-06T05:22:36.459Z,99.90
2023-03-06T05:25:04.884Z,99.90
2023-03-06T05:27:31.620Z,99.90
2023-03-06T05:29:58.305Z,99.90
2023-03-06T05:32:25.064Z,99.90
2023-03-06T05:34:51.761Z,99.90
2023-03-06T05:37:18.427Z,99.90
2023-03-06T05:39:45.370Z,99.90
2023-03-06T05:42:12.002Z,99.90
2023-03-06T05:44:38.740Z,99.90
2023-03-06T05:47:05.573Z,99.90
2023-03-06T05:49:33.890Z,99.90
2023-03-06T05:52:01.188Z,99.90
2023-03-06T05:54:27.848Z,99.90
2023-03-06T05:56:54.508Z,99.90
2023-03-06T05:59:21.240Z,99.90
2023-03-06T06:01:49.017Z,99.90
2023-03-06T06:04:15.713Z,99.90
2023-03-06T06:06:42.320Z,99.90
2023-03-06T06:09:11.686Z,99.90
2023-03-06T06:11:39.481Z,99.90
2023-03-06T06:14:06.077Z,99.90
2023-03-06T06:16:32.783Z,99.90
2023-03-06T06:18:59.500Z,99.90
2023-03-06T06:21:26.172Z,99.90
2023-03-06T06:23:52.814Z,99.90
2023-03-06T06:26:19.639Z,99.90
2023-03-06T06:28:46.333Z,99.90
2023-03-06T06:31:13.387Z,99.90
2023-03-06T06:33:40.650Z,99.90
2023-03-06T06:36:15.115Z,99.90
2023-03-06T06:38:41.788Z,99.90
2023-03-06T06:41:42.639Z,99.90
2023-03-06T06:44:08.768Z,99.90
2023-03-06T06:49:22.885Z,99.90
2023-03-06T06:51:49.655Z,99.90
2023-03-06T06:54:16.419Z,99.90
2023-03-06T06:56:43.042Z,99.90
2023-03-06T06:59:16.515Z,99.90
2023-03-06T07:01:44.006Z,99.90
2023-03-06T07:04:12.344Z,99.90
2023-03-06T07:06:39.112Z,99.90
2023-03-06T07:09:05.684Z,99.90
2023-03-06T07:11:32.362Z,99.90
2023-03-06T07:13:59.302Z,99.90
2023-03-06T07:16:25.991Z,99.90
2023-03-06T07:18:52.573Z,99.90
2023-03-06T07:21:20.460Z,99.90
2023-03-06T07:23:47.164Z,99.90
2023-03-06T07:26:14.067Z,99.90
2023-03-06T07:28:52.089Z,99.90
2023-03-06T07:31:21.318Z,99.90
2023-03-06T07:33:49.077Z,99.90
2023-03-06T07:36:15.904Z,99.90
2023-03-06T07:38:42.853Z,99.90
2023-03-06T07:41:13.362Z,99.90
2023-03-06T07:43:40.858Z,99.90
2023-03-06T07:46:07.796Z,99.90
2023-03-06T07:48:36.346Z,99.90
2023-03-06T07:51:05.002Z,99.90
2023-03-06T07:53:32.269Z,99.90
2023-03-06T07:55:59.368Z,99.90
2023-03-06T07:58:26.488Z,99.90
2023-03-06T08:00:53.222Z,99.90
2023-03-06T08:03:19.920Z,99.90
2023-03-06T08:05:46.688Z,99.90
2023-03-06T08:08:13.424Z,99.90
2023-03-06T08:10:41.206Z,99.90
2023-03-06T08:13:07.842Z,99.90
2023-03-06T08:15:34.485Z,99.90
2023-03-06T08:18:01.162Z,99.90
2023-03-06T08:20:27.789Z,99.90
2023-03-06T08:22:54.446Z,99.90
2023-03-06T08:25:21.105Z,99.90
2023-03-06T08:27:47.757Z,99.90
2023-03-06T08:30:14.730Z,99.90
2023-03-06T08:32:41.513Z,99.90
2023-03-06T08:35:08.409Z,99.90
2023-03-06T08:37:35.159Z,99.90
2023-03-06T08:40:04.574Z,99.90
2023-03-06T08:42:32.191Z,99.90
2023-03-06T08:44:58.876Z,99.90
2023-03-06T08:47:25.584Z,99.90
2023-03-06T08:49:52.288Z,99.90
2023-03-06T08:52:20.164Z,99.90
2023-03-06T08:54:47.030Z,99.90
2023-03-06T08:57:13.663Z,99.90
2023-03-06T08:59:41.979Z,99.90
2023-03-06T09:02:11.793Z,99.90
2023-03-06T09:04:38.521Z,99.90
2023-03-06T09:07:05.224Z,99.90
2023-03-06T09:09:32.029Z,99.90
2023-03-06T09:11:58.589Z,99.90
2023-03-06T09:14:25.208Z,99.90
2023-03-06T09:16:51.956Z,99.90
2023-03-06T09:19:18.676Z,99.90
2023-03-06T09:21:45.360Z,99.90
2023-03-06T09:24:12.018Z,99.90
2023-03-06T09:26:45.881Z,99.90
2023-03-06T09:29:16.618Z,99.90
2023-03-06T09:31:43.714Z,99.90
2023-03-06T09:34:10.438Z,99.90
2023-03-06T09:36:53.293Z,99.90
2023-03-06T09:39:22.231Z,99.90
2023-03-06T09:41:49.570Z,99.90
2023-03-06T09:44:18.548Z,99.90
2023-03-06T09:46:54.336Z,99.90
2023-03-06T09:49:33.229Z,99.90
2023-03-06T09:52:15.277Z,99.90
2023-03-06T09:54:53.174Z,99.90
2023-03-06T09:57:22.843Z,99.90
2023-03-06T09:59:51.634Z,99.90
2023-03-06T10:02:22.057Z,99.90
2023-03-06T10:04:53.420Z,99.90
2023-03-06T10:07:32.276Z,99.90
2023-03-06T10:10:01.069Z,99.90
2023-03-06T10:12:29.173Z,99.90
2023-03-06T10:14:59.660Z,99.90
2023-03-06T10:17:27.444Z,99.90
2023-03-06T10:19:54.369Z,99.90
2023-03-06T10:22:30.200Z,99.90
2023-03-06T10:25:00.566Z,99.90
2023-03-06T10:27:35.891Z,99.90
2023-03-06T10:30:34.890Z,99.90
2023-03-06T10:33:06.101Z,99.90
2023-03-06T10:35:33.019Z,99.90
2023-03-06T10:38:12.207Z,99.90
2023-03-06T10:40:57.581Z,99.90
2023-03-06T10:43:25.665Z,99.90
2023-03-06T10:45:52.934Z,99.90
2023-03-06T10:48:23.807Z,99.90
2023-03-06T10:50:50.633Z,99.90
2023-03-06T10:53:29.140Z,99.90
2023-03-06T10:55:59.783Z,99.90
2023-03-06T10:58:27.841Z,99.90
2023-03-06T11:01:03.892Z,99.90
2023-03-06T11:03:30.601Z,99.90
2023-03-06T11:06:02.455Z,99.90
2023-03-06T11:08:29.651Z,99.90
2023-03-06T11:10:57.826Z,98.10
2023-03-06T11:13:25.438Z,97.50
2023-03-06T11:16:00.319Z,95.40
2023-03-06T11:18:35.002Z,93.50
2023-03-06T11:21:03.290Z,92.80
2023-03-06T11:23:36.658Z,92.60
2023-03-06T11:26:12.523Z,91.50
2023-03-06T11:28:43.952Z,90.30
2023-03-06T11:31:13.192Z,88.80
2023-03-06T11:33:42.511Z,90.50
2023-03-06T11:36:24.283Z,91.30
2023-03-06T11:38:51.932Z,91.20
2023-03-06T11:41:24.867Z,91.50
2023-03-06T11:44:05.145Z,91.40
2023-03-06T11:46:38.425Z,92.20
2023-03-06T11:49:13.605Z,93.30
2023-03-06T11:51:42.250Z,93.00
2023-03-06T11:54:10.378Z,91.90
2023-03-06T11:56:44.273Z,90.60
2023-03-06T11:59:10.862Z,88.70
2023-03-06T12:01:52.690Z,90.50
2023-03-06T12:04:28.254Z,91.90
2023-03-06T12:07:12.954Z,92.60
2023-03-06T12:09:44.783Z,93.40
2023-03-06T12:12:20.277Z,94.30
2023-03-06T12:15:06.753Z,95.00
2023-03-06T12:17:33.400Z,93.30
2023-03-06T12:20:26.441Z,90.60
2023-03-06T12:22:57.672Z,86.70
2023-03-06T12:25:36.945Z,85.90
2023-03-06T12:28:23.069Z,88.00
2023-03-06T12:31:04.824Z,88.60
2023-03-06T12:33:49.741Z,88.50
2023-03-06T12:36:39.746Z,87.10
2023-03-06T12:39:32.998Z,86.30
2023-03-06T12:41:59.572Z,84.70
2023-03-06T12:44:49.235Z,80.80
2023-03-06T12:47:17.700Z,79.70
2023-03-06T12:49:47.420Z,77.80
2023-03-06T12:52:30.399Z,74.80
2023-03-06T12:55:14.609Z,73.40
2023-03-06T12:57:41.857Z,70.30
2023-03-06T13:00:11.518Z,70.40
2023-03-06T13:02:45.985Z,70.20
2023-03-06T13:05:22.206Z,69.80
2023-03-06T13:08:00.729Z,70.60
2023-03-06T13:10:28.554Z,72.60
2023-03-06T13:13:00.992Z,73.30
2023-03-06T13:15:32.180Z,72.40
2023-03-06T13:17:58.860Z,71.80
2023-03-06T13:20:34.656Z,72.30
2023-03-06T13:23:20.672Z,73.70
2023-03-06T13:25:48.649Z,75.60
2023-03-06T13:28:26.206Z,78.40
2023-03-06T13:30:53.390Z,79.70
2023-03-06T13:33:36.340Z,80.20
2023-03-06T13:36:12.281Z,80.20
2023-03-06T13:38:41.904Z,81.70
2023-03-06T13:41:20.809Z,80.90
2023-03-06T13:43:47.969Z,80.20
2023-03-06T13:46:26.236Z,81.70
2023-03-06T13:49:08.109Z,83.20
2023-03-06T13:51:36.208Z,84.60
2023-03-06T13:54:09.266Z,86.20
2023-03-06T13:56:54.278Z,89.00
2023-03-06T13:59:20.848Z,90.30
2023-03-06T14:02:03.212Z,91.40
2023-03-06T14:04:35.656Z,92.90
2023-03-06T14:07:03.929Z,94.10
2023-03-06T14:09:37.041Z,94.00
2023-03-06T14:12:13.005Z,93.50
2023-03-06T14:14:44.684Z,92.60
2023-03-06T14:17:18.219Z,92.80
2023-03-06T14:19:45.174Z,92.70
2023-03-06T14:22:15.744Z,92.50
2023-03-06T14:24:44.471Z,92.50
2023-03-06T14:27:18.620Z,92.40
2023-03-06T14:29:48.534Z,92.00
2023-03-06T14:32:21.378Z,92.20
2023-03-06T14:34:48.190Z,93.00
2023-03-06T14:37:22.589Z,93.70
2023-03-06T14:39:49.314Z,94.20
2023-03-06T14:42:17.791Z,95.00
2023-03-06T14:44:45.025Z,96.00
2023-03-06T14:47:21.751Z,96.60
2023-03-06T14:49:48.411Z,97.40
2023-03-06T14:52:18.624Z,97.70
2023-03-06T14:54:45.517Z,98.20
2023-03-06T14:57:14.276Z,98.80
2023-03-06T14:59:53.936Z,99.90
2023-03-06T15:02:22.856Z,99.90
2023-03-06T15:04:52.102Z,99.90
2023-03-06T15:07:21.445Z,99.90
2023-03-06T15:09:49.216Z,99.90
2023-03-06T15:12:19.830Z,99.90
2023-03-06T15:14:57.538Z,99.90
2023-03-06T15:17:26.086Z,99.90
2023-03-06T15:19:54.592Z,99.90
2023-03-06T15:22:57.054Z,99.90
2023-03-06T15:25:26.846Z,99.90
2023-03-06T15:27:54.941Z,99.90
2023-03-06T15:30:27.317Z,99.90
2023-03-06T15:33:12.665Z,99.90
2023-03-06T15:35:39.417Z,99.90
2023-03-06T15:38:22.506Z,99.90
2023-03-06T15:40:58.854Z,99.90
2023-03-06T15:43:25.632Z,99.90
2023-03-06T15:45:56.148Z,99.90
2023-03-06T15:48:22.856Z,99.90
2023-03-06T15:50:49.510Z,99.90
2023-03-06T15:53:16.278Z,99.90
2023-03-06T15:55:42.981Z,99.90
2023-03-06T15:58:11.877Z,99.90
2023-03-06T16:00:58.719Z,99.90
2023-03-06T16:07:35.996Z,99.90
2023-03-06T16:10:03.423Z,99.90
2023-03-06T16:12:56.368Z,99.90
2023-03-06T16:15:25.597Z,99.90
2023-03-06T16:17:52.214Z,99.90
2023-03-06T16:20:20.724Z,99.90
2023-03-06T16:25:42.896Z,99.90
2023-03-06T16:28:23.881Z,99.90
2023-03-06T16:30:56.049Z,99.90
2023-03-06T16:33:24.265Z,99.90
2023-03-06T16:35:50.931Z,99.90
2023-03-06T16:38:25.972Z,99.90
2023-03-06T16:40:52.726Z,99.90
2023-03-06T16:43:19.351Z,99.90
2023-03-06T16:45:46.216Z,99.90
2023-03-06T16:48:15.069Z,99.90
2023-03-06T16:50:42.025Z,99.90
2023-03-06T16:53:08.818Z,99.90
2023-03-06T16:55:35.514Z,99.90
2023-03-06T16:58:02.199Z,99.90
2023-03-06T17:00:31.876Z,99.90
2023-03-06T17:02:59.192Z,99.90
2023-03-06T17:05:26.117Z,99.90
2023-03-06T17:07:53.624Z,99.90
2023-03-06T17:10:22.695Z,99.90
2023-03-06T17:12:49.960Z,99.90
2023-03-06T17:15:16.620Z,99.90
2023-03-06T17:17:43.303Z,99.90
2023-03-06T17:20:11.534Z,99.90
2023-03-06T17:22:38.740Z,99.90
2023-03-06T17:25:06.754Z,99.90
2023-03-06T17:27:34.085Z,99.90
2023-03-06T17:30:00.931Z,99.90
2023-03-06T17:32:27.952Z,99.90
2023-03-06T17:34:55.373Z,99.90
2023-03-06T17:37:22.157Z,99.90
2023-03-06T17:39:49.768Z,99.90
2023-03-06T17:42:16.538Z,99.90
2023-03-06T17:44:43.211Z,99.90
2023-03-06T17:47:10.012Z,99.90
2023-03-06T17:49:36.659Z,99.90
2023-03-06T17:52:05.616Z,99.90
2023-03-06T17:54:33.239Z,99.90
2023-03-06T17:57:01.882Z,99.90
2023-03-06T17:59:28.790Z,99.90
2023-03-06T18:01:56.227Z,99.90
2023-03-06T18:04:22.938Z,99.90
2023-03-06T18:06:49.565Z,99.90
2023-03-06T18:09:16.367Z,99.90
2023-03-06T18:11:43.004Z,99.90
2023-03-06T18:14:09.726Z,99.90
2023-03-06T18:16:36.423Z,99.90
2023-03-06T18:19:03.179Z,99.90
2023-03-06T18:21:30.636Z,99.90
2023-03-06T18:23:57.937Z,99.90
2023-03-06T18:26:26.562Z,99.90
2023-03-06T18:28:54.552Z,99.90
2023-03-06T18:31:24.403Z,99.90
2023-03-06T18:34:01.667Z,99.90
2023-03-06T18:36:29.740Z,99.90
2023-03-06T18:38:56.441Z,99.90
2023-03-06T18:41:23.267Z,99.90
2023-03-06T18:43:53.817Z,99.90
2023-03-06T18:46:20.599Z,99.90
2023-03-06T18:48:47.516Z,99.90
2023-03-06T18:51:14.191Z,99.90
2023-03-06T18:53:41.144Z,99.90
2023-03-06T18:56:08.876Z,99.90
2023-03-06T18:58:35.577Z,99.90
2023-03-06T19:01:08.497Z,99.90
2023-03-06T19:03:35.573Z,99.90
2023-03-06T19:06:07.156Z,99.90
2023-03-06T19:08:34.379Z,99.90
2023-03-06T19:11:02.398Z,99.90
2023-03-06T19:13:29.309Z,99.90
2023-03-06T19:15:57.019Z,99.90
2023-03-06T19:18:24.611Z,99.90
2023-03-06T19:20:52.706Z,99.90
2023-03-06T19:23:19.537Z,99.90
2023-03-06T19:25:55.266Z,99.90
2023-03-06T19:28:21.918Z,99.90
2023-03-06T19:30:48.557Z,99.90
2023-03-06T19:33:15.547Z,99.90
2023-03-06T19:35:42.279Z,99.90
2023-03-06T19:38:10.102Z,99.90
2023-03-06T19:40:37.078Z,99.90
2023-03-06T19:43:04.119Z,99.90
2023-03-06T19:45:30.809Z,99.90
2023-03-06T19:48:00.930Z,99.90
2023-03-06T19:50:30.433Z,99.90
2023-03-06T19:52:57.556Z,99.90
2023-03-06T19:55:29.635Z,99.90
2023-03-06T19:57:56.275Z,99.90
2023-03-06T20:00:23.005Z,99.90
2023-03-06T20:02:49.983Z,99.90
2023-03-06T20:05:17.098Z,99.90
2023-03-06T20:07:43.704Z,99.90
2023-03-06T20:10:10.656Z,99.90
2023-03-06T20:12:37.295Z,99.90
2023-03-06T20:15:04.161Z,99.90
2023-03-06T20:17:32.532Z,99.90
2023-03-06T20:19:59.534Z,99.90
2023-03-06T20:22:26.288Z,99.90
2023-03-06T20:24:53.074Z,99.90
2023-03-06T20:27:19.781Z,99.90
2023-03-06T20:29:46.839Z,99.90
2023-03-06T20:32:13.672Z,99.90
2023-03-06T20:34:40.368Z,99.90
2023-03-06T20:37:07.566Z,99.90
2023-03-06T20:39:34.347Z,99.90
2023-03-06T20:42:01.079Z,99.90
2023-03-06T20:44:28.677Z,99.90
2023-03-06T20:46:55.312Z,99.90
2023-03-06T20:49:22.406Z,99.90
2023-03-06T20:51:49.889Z,99.90
2023-03-06T20:54:17.136Z,99.90
2023-03-06T20:56:46.568Z,99.90
2023-03-06T20:59:13.614Z,99.90
2023-03-06T21:01:41.704Z,99.90
2023-03-06T21:04:10.068Z,99.90
2023-03-06T21:06:37.453Z,99.90
2023-03-06T21:09:05.263Z,99.90
2023-03-06T21:11:32.328Z,99.90
2023-03-06T21:13:58.895Z,99.90
2023-03-06T21:16:25.929Z,99.90
2023-03-06T21:18:57.122Z,99.90
2023-03-06T21:21:25.413Z,99.90
2023-03-06T21:23:52.266Z,99.90
2023-03-06T21:26:20.222Z,99.90
2023-03-06T21:28:46.846Z,99.90
2023-03-06T21:31:14.340Z,99.90
2023-03-06T21:33:40.970Z,99.90
2023-03-06T21:36:07.956Z,99.90
2023-03-06T21:38:35.008Z,99.90
2023-03-06T21:41:18.197Z,99.90
2023-03-06T21:43:44.797Z,99.90
2023-03-06T21:46:11.803Z,99.90
2023-03-06T21:48:38.572Z,99.90
2023-03-06T21:51:05.412Z,99.90
2023-03-06T21:53:32.075Z,99.90
2023-03-06T21:55:59.282Z,99.90
2023-03-06T21:58:25.962Z,99.90
2023-03-06T22:00:52.693Z,99.90
2023-03-06T22:03:19.357Z,99.90
2023-03-06T22:05:46.167Z,99.90
2023-03-06T22:08:12.833Z,99.90
2023-03-06T22:10:39.964Z,99.90
2023-03-06T22:13:06.550Z,99.90
2023-03-06T22:15:33.174Z,99.90
2023-03-06T22:17:59.901Z,99.90
2023-03-06T22:20:26.519Z,99.90
2023-03-06T22:22:53.288Z,99.90
2023-03-06T22:25:19.967Z,99.90
2023-03-06T22:27:46.716Z,99.90
2023-03-06T22:30:13.650Z,99.90
2023-03-06T22:32:40.451Z,99.90
2023-03-06T22:35:07.289Z,99.90
2023-03-06T22:37:33.906Z,99.90
2023-03-06T22:40:00.651Z,99.90
2023-03-06T22:42:27.286Z,99.90
2023-03-06T22:44:53.910Z,99.90
2023-03-06T22:47:20.540Z,99.90
2023-03-06T22:49:47.643Z,99.90
2023-03-06T22:52:15.246Z,99.90
2023-03-06T22:54:41.999Z,99.90
2023-03-06T22:57:08.612Z,99.90
2023-03-06T22:59:35.271Z,99.90
2023-03-06T23:02:01.912Z,99.90
2023-03-06T23:04:28.619Z,99.90
2023-03-06T23:06:55.397Z,99.90
2023-03-06T23:09:22.595Z,99.90
2023-03-06T23:12:08.947Z,99.90
2023-03-06T23:14:54.511Z,99.90
2023-03-06T23:17:40.147Z,99.90
2023-03-06T23:20:25.493Z,99.90
2023-03-06T23:23:10.899Z,99.90
2023-03-06T23:25:43.790Z,99.90
2023-03-06T23:28:10.831Z,99.90
2023-03-06T23:30:38.209Z,99.90
2023-03-06T23:33:05.258Z,99.90
2023-03-06T23:35:32.724Z,99.90
2023-03-06T23:38:00.057Z,99.90
2023-03-06T23:40:28.213Z,99.90
2023-03-06T23:42:54.877Z,99.90
2023-03-06T23:45:21.877Z,99.90
2023-03-06T23:47:48.533Z,99.90
2023-03-06T23:50:15.341Z,99.90
2023-03-06T23:52:42.022Z,99.90
2023-03-06T23:55:09.028Z,99.90
2023-03-06T23:57:35.627Z,99.90
